createdAt,value
2019-01-17T00:02:34.532Z,97365.52
2019-01-17T00:05:25.315Z,97370.61
2019-01-17T00:08:15.400Z,97375.61
2019-01-17T00:11:01.908Z,97377.19
2019-01-17T00:14:01.242Z,97384.63
2019-01-17T00:16:40.408Z,97381.64
2019-01-17T00:19:32.678Z,97380.02
2019-01-17T00:22:17.793Z,97398.13
2019-01-17T00:25:06.549Z,97401.14
2019-01-17T00:27:59.610Z,97399.69
2019-01-17T00:30:45.767Z,97411.36
2019-01-17T00:33:38.725Z,97411.41
2019-01-17T00:36:23.124Z,97412.25
2019-01-17T00:39:14.760Z,97406.88
2019-01-17T00:42:03.801Z,97409.91
2019-01-17T00:44:56.641Z,97404.21
2019-01-17T00:47:45.282Z,97415.38
2019-01-17T00:50:34.342Z,97409.70
2019-01-17T00:53:23.471Z,97412.97
2019-01-17T00:56:12.121Z,97411.76
2019-01-17T00:59:01.073Z,97410.48
2019-01-17T01:01:49.760Z,97416.55
2019-01-17T01:04:40.090Z,97411.47
2019-01-17T01:07:39.441Z,97410.25
2019-01-17T01:10:39.649Z,97410.59
2019-01-17T01:13:35.809Z,97419.33
2019-01-17T01:16:25.803Z,97418.11
2019-01-17T01:19:11.355Z,97409.84
2019-01-17T01:22:05.994Z,97408.22
2019-01-17T01:24:55.131Z,97405.97
2019-01-17T01:27:54.350Z,97404.46
2019-01-17T01:30:53.393Z,97406.09
2019-01-17T01:33:46.531Z,97402.27
2019-01-17T01:36:35.396Z,97404.98
2019-01-17T01:39:26.753Z,97397.81
2019-01-17T01:42:13.447Z,97403.05
2019-01-17T01:45:03.633Z,97399.23
2019-01-17T01:47:47.862Z,97393.65
2019-01-17T01:50:32.172Z,97389.39
2019-01-17T01:53:05.619Z,97382.34
2019-01-17T01:55:37.651Z,97382.77
2019-01-17T01:58:09.142Z,97382.83
2019-01-17T02:00:40.737Z,97383.96
2019-01-17T02:03:12.255Z,97379.22
2019-01-17T02:05:43.680Z,97377.82
2019-01-17T02:08:15.180Z,97376.95
2019-01-17T02:10:46.516Z,97380.70
2019-01-17T02:13:18.407Z,97381.77
2019-01-17T02:15:53.437Z,97387.45
2019-01-17T02:18:25.007Z,97385.23
2019-01-17T02:20:56.360Z,97385.02
2019-01-17T02:23:27.770Z,97392.41
2019-01-17T02:25:59.149Z,97395.88
2019-01-17T02:28:30.569Z,97396.69
2019-01-17T02:31:01.931Z,97398.91
2019-01-17T02:33:33.362Z,97395.27
2019-01-17T02:36:04.856Z,97388.93
2019-01-17T02:38:36.320Z,97396.08
2019-01-17T02:41:07.832Z,97388.41
2019-01-17T02:43:39.234Z,97400.53
2019-01-17T02:46:10.663Z,97401.11
2019-01-17T02:48:42.076Z,97405.39
2019-01-17T02:51:13.364Z,97409.70
2019-01-17T02:53:44.769Z,97412.42
2019-01-17T02:56:16.133Z,97414.52
2019-01-17T02:58:47.528Z,97407.53
2019-01-17T03:01:19.046Z,97400.30
2019-01-17T03:03:50.584Z,97391.45
2019-01-17T03:06:22.025Z,97401.78
2019-01-17T03:08:53.423Z,97405.19
2019-01-17T03:11:24.965Z,97406.88
2019-01-17T03:13:57.516Z,97414.19
2019-01-17T03:16:28.908Z,97408.58
2019-01-17T03:19:00.283Z,97407.25
2019-01-17T03:21:31.540Z,97413.69
2019-01-17T03:24:02.916Z,97413.61
2019-01-17T03:26:34.352Z,97419.39
2019-01-17T03:29:05.772Z,97418.34
2019-01-17T03:31:37.200Z,97419.56
2019-01-17T03:34:08.746Z,97426.56
2019-01-17T03:36:40.140Z,97430.81
2019-01-17T03:39:11.584Z,97432.49
2019-01-17T03:41:43.007Z,97436.41
2019-01-17T03:44:14.416Z,97437.30
2019-01-17T03:46:45.818Z,97433.05
2019-01-17T03:49:17.168Z,97443.61
2019-01-17T03:51:48.686Z,97449.75
2019-01-17T03:54:20.172Z,97456.78
2019-01-17T03:56:51.792Z,97451.75
2019-01-17T03:59:23.269Z,97455.72
2019-01-17T04:01:54.807Z,97457.55
2019-01-17T04:04:26.211Z,97458.67
2019-01-17T04:06:57.626Z,97455.34
2019-01-17T04:09:28.918Z,97461.59
2019-01-17T04:12:00.352Z,97462.20
2019-01-17T04:14:31.718Z,97465.25
2019-01-17T04:17:03.025Z,97467.47
2019-01-17T04:19:34.393Z,97468.28
2019-01-17T04:22:05.737Z,97467.12
2019-01-17T04:24:41.534Z,97466.45
2019-01-17T04:27:15.397Z,97469.09
2019-01-17T04:29:46.805Z,97461.11
2019-01-17T04:32:18.002Z,97464.90
2019-01-17T04:34:49.430Z,97463.56
2019-01-17T04:37:20.802Z,97462.78
2019-01-17T04:39:52.386Z,97456.84
2019-01-17T04:42:23.835Z,97461.30
2019-01-17T04:44:55.161Z,97469.79
2019-01-17T04:47:26.661Z,97472.34
2019-01-17T04:49:58.021Z,97478.77
2019-01-17T04:52:29.357Z,97478.41
2019-01-17T04:55:04.988Z,97479.40
2019-01-17T04:57:33.840Z,97473.52
2019-01-17T05:00:06.523Z,97472.62
2019-01-17T05:02:37.895Z,97477.40
2019-01-17T05:05:10.686Z,97484.09
2019-01-17T05:07:42.127Z,97484.88
2019-01-17T05:10:13.946Z,97491.32
2019-01-17T05:12:45.332Z,97488.61
2019-01-17T05:15:16.711Z,97485.05
2019-01-17T05:17:47.993Z,97495.51
2019-01-17T05:20:19.481Z,97494.61
2019-01-17T05:22:50.699Z,97503.29
2019-01-17T05:25:22.161Z,97494.67
2019-01-17T05:27:53.500Z,97501.11
2019-01-17T05:30:24.973Z,97496.58
2019-01-17T05:32:56.414Z,97500.57
2019-01-17T05:35:27.912Z,97498.02
2019-01-17T05:37:59.388Z,97500.74
2019-01-17T05:40:30.799Z,97500.27
2019-01-17T05:43:02.250Z,97498.61
2019-01-17T05:45:33.761Z,97494.45
2019-01-17T05:48:05.239Z,97494.31
2019-01-17T05:50:36.712Z,97497.95
2019-01-17T05:53:08.200Z,97498.62
2019-01-17T05:55:39.606Z,97510.75
2019-01-17T05:58:11.058Z,97505.41
2019-01-17T06:00:42.587Z,97494.26
2019-01-17T06:03:14.011Z,97500.48
2019-01-17T06:05:45.426Z,97502.04
2019-01-17T06:08:16.820Z,97500.23
2019-01-17T06:10:48.226Z,97505.19
2019-01-17T06:13:20.951Z,97504.87
2019-01-17T06:15:52.539Z,97499.59
2019-01-17T06:18:24.020Z,97494.03
2019-01-17T06:20:55.500Z,97498.38
2019-01-17T06:23:27.038Z,97507.28
2019-01-17T06:25:58.498Z,97509.13
2019-01-17T06:28:30.002Z,97511.22
2019-01-17T06:31:01.349Z,97515.09
2019-01-17T06:33:32.869Z,97506.45
2019-01-17T06:36:04.397Z,97502.40
2019-01-17T06:38:35.833Z,97509.05
2019-01-17T06:41:07.229Z,97505.64
2019-01-17T06:43:38.631Z,97504.50
2019-01-17T06:46:10.191Z,97512.65
2019-01-17T06:48:41.653Z,97511.47
2019-01-17T06:51:13.107Z,97524.22
2019-01-17T06:53:44.544Z,97520.33
2019-01-17T06:56:15.906Z,97520.13
2019-01-17T06:58:47.241Z,97523.99
2019-01-17T07:01:18.668Z,97522.09
2019-01-17T07:03:49.980Z,97524.13
2019-01-17T07:06:21.490Z,97524.62
2019-01-17T07:08:52.935Z,97526.72
2019-01-17T07:11:24.284Z,97532.81
2019-01-17T07:13:55.612Z,97537.53
2019-01-17T07:16:27.080Z,97544.20
2019-01-17T07:18:58.821Z,97549.84
2019-01-17T07:21:30.220Z,97548.80
2019-01-17T07:24:01.629Z,97554.41
2019-01-17T07:26:33.164Z,97555.69
2019-01-17T07:29:05.004Z,97558.44
2019-01-17T07:31:36.408Z,97555.42
2019-01-17T07:34:07.850Z,97555.59
2019-01-17T07:36:39.342Z,97559.84
2019-01-17T07:39:10.847Z,97557.84
2019-01-17T07:41:42.296Z,97560.22
2019-01-17T07:44:13.761Z,97556.19
2019-01-17T07:46:45.300Z,97561.27
2019-01-17T07:49:16.866Z,97565.22
2019-01-17T07:51:48.548Z,97556.52
2019-01-17T07:54:20.044Z,97561.45
2019-01-17T07:56:51.667Z,97564.22
2019-01-17T07:59:23.092Z,97558.89
2019-01-17T08:01:54.459Z,97559.46
2019-01-17T08:04:25.883Z,97555.76
2019-01-17T08:06:57.318Z,97557.94
2019-01-17T08:09:28.860Z,97558.30
2019-01-17T08:12:05.015Z,97566.36
2019-01-17T08:14:33.467Z,97567.77
2019-01-17T08:17:05.120Z,97571.09
2019-01-17T08:19:36.595Z,97570.37
2019-01-17T08:22:08.302Z,97578.23
2019-01-17T08:24:39.858Z,97574.16
2019-01-17T08:27:11.970Z,97572.44
2019-01-17T08:29:43.344Z,97573.52
2019-01-17T08:32:14.750Z,97575.16
2019-01-17T08:34:46.987Z,97574.75
2019-01-17T08:37:18.401Z,97581.19
2019-01-17T08:39:49.697Z,97578.69
2019-01-17T08:42:21.222Z,97580.85
2019-01-17T08:44:52.586Z,97580.88
2019-01-17T08:47:23.986Z,97572.09
2019-01-17T08:49:56.618Z,97572.25
2019-01-17T08:52:28.391Z,97561.00
2019-01-17T08:54:59.911Z,97561.85
2019-01-17T08:57:31.295Z,97565.56
2019-01-17T09:00:02.611Z,97554.56
2019-01-17T09:02:34.050Z,97553.43
2019-01-17T09:05:06.102Z,97559.66
2019-01-17T09:07:37.517Z,97561.86
2019-01-17T09:10:10.841Z,97562.73
2019-01-17T09:12:42.248Z,97561.53
2019-01-17T09:15:15.078Z,97565.96
2019-01-17T09:17:46.585Z,97556.33
2019-01-17T09:20:17.984Z,97556.45
2019-01-17T09:22:49.581Z,97550.77
2019-01-17T09:25:21.060Z,97551.27
2019-01-17T09:27:52.462Z,97551.91
2019-01-17T09:30:24.128Z,97559.52
2019-01-17T09:32:55.656Z,97556.00
2019-01-17T09:35:27.178Z,97552.23
2019-01-17T09:37:59.902Z,97546.50
2019-01-17T09:40:31.514Z,97547.33
2019-01-17T09:43:02.998Z,97543.47
2019-01-17T09:45:35.818Z,97537.66
2019-01-17T09:48:07.340Z,97539.17
2019-01-17T09:50:38.851Z,97535.06
2019-01-17T09:53:10.328Z,97534.70
2019-01-17T09:55:42.908Z,97532.88
2019-01-17T09:58:14.558Z,97532.09
2019-01-17T10:00:45.936Z,97530.94
2019-01-17T10:03:17.390Z,97523.34
2019-01-17T10:05:48.956Z,97510.27
2019-01-17T10:08:20.377Z,97517.19
2019-01-17T10:10:51.774Z,97506.54
2019-01-17T10:13:23.180Z,97515.96
2019-01-17T10:16:25.508Z,97507.31
2019-01-17T10:19:33.035Z,97502.68
2019-01-17T10:22:57.194Z,97495.89
2019-01-17T10:25:59.568Z,97492.81
2019-01-17T10:29:06.772Z,97495.45
2019-01-17T10:32:10.343Z,97491.86
2019-01-17T10:35:05.784Z,97482.30
2019-01-17T10:38:00.284Z,97486.13
2019-01-17T10:41:23.960Z,97487.16
2019-01-17T10:44:47.831Z,97485.73
2019-01-17T10:48:09.211Z,97476.48
2019-01-17T10:51:25.858Z,97474.57
2019-01-17T10:54:13.242Z,97475.49
2019-01-17T10:57:07.829Z,97476.87
2019-01-17T10:59:58.402Z,97467.31
2019-01-17T11:02:45.799Z,97470.05
2019-01-17T11:05:38.262Z,97464.74
2019-01-17T11:08:27.840Z,97464.74
2019-01-17T11:11:21.940Z,97462.61
2019-01-17T11:14:31.500Z,97460.59
2019-01-17T11:17:37.777Z,97452.42
2019-01-17T11:21:01.708Z,97442.19
2019-01-17T11:24:00.994Z,97449.80
2019-01-17T11:27:21.870Z,97449.33
2019-01-17T11:30:13.601Z,97433.83
2019-01-17T11:33:18.630Z,97433.22
2019-01-17T11:36:26.143Z,97427.30
2019-01-17T11:39:21.057Z,97426.39
2019-01-17T11:42:47.848Z,97429.14
2019-01-17T11:46:02.561Z,97416.23
2019-01-17T11:49:01.901Z,97426.69
2019-01-17T11:52:10.033Z,97420.52
2019-01-17T11:55:21.896Z,97424.39
2019-01-17T11:58:19.740Z,97415.34
2019-01-17T12:01:39.025Z,97424.61
2019-01-17T12:04:38.258Z,97425.94
2019-01-17T12:07:15.516Z,97414.73
2019-01-17T12:09:46.905Z,97414.67
2019-01-17T12:12:23.412Z,97413.11
2019-01-17T12:14:58.109Z,97407.05
2019-01-17T12:17:29.453Z,97412.22
2019-01-17T12:20:00.866Z,97416.58
2019-01-17T12:22:32.214Z,97415.19
2019-01-17T12:25:03.582Z,97408.00
2019-01-17T12:27:35.072Z,97410.48
2019-01-17T12:30:09.992Z,97406.17
2019-01-17T12:32:41.335Z,97404.48
2019-01-17T12:35:13.443Z,97413.52
2019-01-17T12:37:44.754Z,97411.31
2019-01-17T12:40:16.936Z,97410.48
2019-01-17T12:42:49.290Z,97408.91
2019-01-17T12:45:20.732Z,97413.67
2019-01-17T12:47:52.069Z,97410.19
2019-01-17T12:50:23.562Z,97407.44
2019-01-17T12:52:55.088Z,97412.20
2019-01-17T12:55:26.640Z,97409.63
2019-01-17T12:57:58.030Z,97405.09
2019-01-17T13:00:29.398Z,97407.50
2019-01-17T13:03:00.837Z,97407.95
2019-01-17T13:05:32.345Z,97410.20
2019-01-17T13:08:03.798Z,97409.13
2019-01-17T13:10:35.311Z,97404.14
2019-01-17T13:13:06.766Z,97396.80
2019-01-17T13:15:38.371Z,97387.78
2019-01-17T13:18:09.871Z,97394.71
2019-01-17T13:20:41.412Z,97400.70
2019-01-17T13:23:12.901Z,97395.37
2019-01-17T13:25:45.516Z,97388.66
2019-01-17T13:28:16.883Z,97386.00
2019-01-17T13:30:48.253Z,97382.41
2019-01-17T13:33:20.986Z,97386.67
2019-01-17T13:35:52.542Z,97387.77
2019-01-17T13:38:24.037Z,97387.31
2019-01-17T13:40:55.503Z,97383.14
2019-01-17T13:43:26.968Z,97382.67
2019-01-17T13:45:58.198Z,97383.53
2019-01-17T13:48:29.593Z,97381.38
2019-01-17T13:51:00.886Z,97378.80
2019-01-17T13:53:32.302Z,97375.20
2019-01-17T13:56:03.725Z,97370.86
2019-01-17T13:58:35.214Z,97371.65
2019-01-17T14:01:06.698Z,97367.50
2019-01-17T14:03:38.120Z,97362.16
2019-01-17T14:06:09.530Z,97359.14
2019-01-17T14:08:41.087Z,97359.50
2019-01-17T14:11:12.497Z,97354.34
2019-01-17T14:13:43.953Z,97350.05
2019-01-17T14:16:17.272Z,97350.78
2019-01-17T14:18:48.736Z,97350.67
2019-01-17T14:21:25.417Z,97352.20
2019-01-17T14:23:54.642Z,97351.70
2019-01-17T14:26:26.058Z,97347.05
2019-01-17T14:28:57.532Z,97351.97
2019-01-17T14:31:29.097Z,97351.05
2019-01-17T14:34:00.718Z,97345.64
2019-01-17T14:36:32.279Z,97349.20
2019-01-17T14:39:03.954Z,97342.30
2019-01-17T14:41:35.464Z,97347.73
2019-01-17T14:44:06.956Z,97345.56
2019-01-17T14:46:47.240Z,97342.78
2019-01-17T14:49:21.198Z,97343.53
2019-01-17T14:51:52.707Z,97342.53
2019-01-17T14:54:24.171Z,97343.59
2019-01-17T14:56:55.501Z,97339.91
2019-01-17T14:59:26.955Z,97332.58
2019-01-17T15:01:58.251Z,97333.95
2019-01-17T15:04:29.663Z,97334.34
2019-01-17T15:07:01.040Z,97342.60
2019-01-17T15:09:32.475Z,97343.33
2019-01-17T15:12:03.969Z,97342.58
2019-01-17T15:14:35.485Z,97341.37
2019-01-17T15:17:06.929Z,97344.76
2019-01-17T15:19:38.506Z,97344.58
2019-01-17T15:22:09.988Z,97350.69
2019-01-17T15:24:41.475Z,97350.38
2019-01-17T15:27:12.963Z,97359.62
2019-01-17T15:29:44.436Z,97356.59
2019-01-17T15:32:16.035Z,97351.78
2019-01-17T15:34:47.423Z,97351.16
2019-01-17T15:37:18.971Z,97347.83
2019-01-17T15:39:50.354Z,97351.83
2019-01-17T15:42:21.864Z,97354.64
2019-01-17T15:44:53.365Z,97357.47
2019-01-17T15:47:24.841Z,97354.75
2019-01-17T15:49:56.232Z,97356.40
2019-01-17T15:52:27.632Z,97361.27
2019-01-17T15:54:59.211Z,97360.62
2019-01-17T15:57:34.031Z,97363.31
2019-01-17T16:00:04.460Z,97364.63
2019-01-17T16:02:35.911Z,97368.19
2019-01-17T16:05:07.431Z,97365.55
2019-01-17T16:07:38.829Z,97366.91
2019-01-17T16:10:11.295Z,97367.27
2019-01-17T16:12:42.672Z,97376.41
2019-01-17T16:15:17.029Z,97376.38
2019-01-17T16:17:48.452Z,97384.02
2019-01-17T16:20:19.986Z,97387.22
2019-01-17T16:22:51.576Z,97380.92
2019-01-17T16:25:23.030Z,97386.36
2019-01-17T16:27:54.465Z,97388.67
2019-01-17T16:30:30.992Z,97384.38
2019-01-17T16:33:02.373Z,97390.04
2019-01-17T16:35:33.697Z,97386.59
2019-01-17T16:38:05.229Z,97387.03
2019-01-17T16:40:36.575Z,97384.55
2019-01-17T16:43:07.952Z,97382.66
2019-01-17T16:45:39.265Z,97392.46
2019-01-17T16:48:10.719Z,97396.67
2019-01-17T16:50:42.205Z,97398.66
2019-01-17T16:53:13.654Z,97398.26
2019-01-17T16:55:44.977Z,97393.58
2019-01-17T16:58:16.405Z,97398.26
2019-01-17T17:00:48.526Z,97395.08
2019-01-17T17:03:19.916Z,97399.92
2019-01-17T17:05:51.373Z,97400.20
2019-01-17T17:08:22.975Z,97401.47
2019-01-17T17:10:54.408Z,97404.13
2019-01-17T17:13:25.713Z,97407.52
2019-01-17T17:15:57.150Z,97407.13
2019-01-17T17:18:28.540Z,97408.05
2019-01-17T17:21:00.053Z,97411.05
2019-01-17T17:23:31.410Z,97406.84
2019-01-17T17:26:03.066Z,97413.30
2019-01-17T17:28:34.494Z,97407.87
2019-01-17T17:31:06.008Z,97403.13
2019-01-17T17:33:37.339Z,97403.52
2019-01-17T17:36:09.931Z,97402.59
2019-01-17T17:38:42.639Z,97398.89
2019-01-17T17:41:14.121Z,97401.73
2019-01-17T17:43:45.566Z,97402.58
2019-01-17T17:46:17.088Z,97401.69
2019-01-17T17:48:48.462Z,97391.28
2019-01-17T17:51:19.862Z,97388.65
2019-01-17T17:53:51.311Z,97391.78
2019-01-17T17:56:22.747Z,97388.16
2019-01-17T17:58:54.283Z,97389.83
2019-01-17T18:01:29.431Z,97392.29
2019-01-17T18:04:01.339Z,97394.17
2019-01-17T18:06:32.828Z,97391.30
2019-01-17T18:09:05.579Z,97391.06
2019-01-17T18:11:37.451Z,97387.66
2019-01-17T18:14:08.941Z,97399.48
2019-01-17T18:16:40.440Z,97385.91
2019-01-17T18:19:11.882Z,97392.40
2019-01-17T18:21:43.311Z,97392.65
2019-01-17T18:24:14.771Z,97381.63
2019-01-17T18:26:46.330Z,97388.05
2019-01-17T18:29:17.902Z,97386.64
2019-01-17T18:31:49.517Z,97380.77
2019-01-17T18:34:21.038Z,97384.41
2019-01-17T18:36:52.525Z,97374.62
2019-01-17T18:39:23.888Z,97375.58
2019-01-17T18:41:55.281Z,97376.46
2019-01-17T18:44:26.714Z,97379.18
2019-01-17T18:46:58.167Z,97379.73
2019-01-17T18:49:29.588Z,97385.17
2019-01-17T18:52:01.050Z,97381.90
2019-01-17T18:54:32.529Z,97380.50
2019-01-17T18:57:03.949Z,97385.94
2019-01-17T18:59:35.398Z,97381.90
2019-01-17T19:02:07.440Z,97386.94
2019-01-17T19:04:38.890Z,97383.10
2019-01-17T19:07:10.367Z,97384.38
2019-01-17T19:09:41.829Z,97376.74
2019-01-17T19:12:13.358Z,97383.98
2019-01-17T19:14:44.759Z,97380.73
2019-01-17T19:17:16.214Z,97381.30
2019-01-17T19:19:47.591Z,97384.38
2019-01-17T19:22:19.070Z,97385.81
2019-01-17T19:24:50.531Z,97376.78
2019-01-17T19:27:22.017Z,97383.45
2019-01-17T19:29:53.492Z,97375.98
2019-01-17T19:32:25.010Z,97379.98
2019-01-17T19:34:56.464Z,97384.34
2019-01-17T19:37:27.909Z,97381.53
2019-01-17T19:39:59.377Z,97380.02
2019-01-17T19:42:30.835Z,97383.97
2019-01-17T19:45:02.380Z,97383.33
2019-01-17T19:47:33.839Z,97378.41
2019-01-17T19:50:06.741Z,97390.25
2019-01-17T19:52:38.141Z,97381.53
2019-01-17T19:55:09.879Z,97383.66
2019-01-17T19:57:41.314Z,97379.77
2019-01-17T20:00:14.423Z,97389.60
2019-01-17T20:02:46.011Z,97382.33
2019-01-17T20:05:19.079Z,97386.95
2019-01-17T20:08:01.539Z,97379.28
2019-01-17T20:10:35.207Z,97384.14
2019-01-17T20:13:07.136Z,97384.64
2019-01-17T20:15:38.868Z,97383.23
2019-01-17T20:18:10.542Z,97380.43
2019-01-17T20:20:43.332Z,97381.98
2019-01-17T20:23:14.699Z,97374.42
2019-01-17T20:25:46.076Z,97379.02
2019-01-17T20:28:17.385Z,97380.83
2019-01-17T20:30:48.929Z,97372.73
2019-01-17T20:33:20.382Z,97373.57
2019-01-17T20:35:51.981Z,97376.91
2019-01-17T20:38:24.033Z,97373.05
2019-01-17T20:40:58.231Z,97372.98
2019-01-17T20:43:28.432Z,97373.09
2019-01-17T20:46:01.095Z,97376.57
2019-01-17T20:48:32.519Z,97377.63
2019-01-17T20:51:04.082Z,97377.94
2019-01-17T20:53:35.634Z,97380.02
2019-01-17T20:56:07.146Z,97376.05
2019-01-17T20:58:42.280Z,97372.22
2019-01-17T21:01:49.639Z,97375.06
2019-01-17T21:04:22.460Z,97373.59
2019-01-17T21:06:53.952Z,97374.47
2019-01-17T21:09:26.882Z,97377.42
2019-01-17T21:11:59.043Z,97372.70
2019-01-17T21:14:34.039Z,97377.33
2019-01-17T21:17:54.743Z,97373.50
2019-01-17T21:21:02.530Z,97378.48
2019-01-17T21:23:50.510Z,97372.45
2019-01-17T21:26:31.537Z,97373.73
2019-01-17T21:29:43.848Z,97372.73
2019-01-17T21:32:27.504Z,97375.41
2019-01-17T21:35:15.001Z,97375.48
2019-01-17T21:41:12.002Z,97369.56
2019-01-17T21:43:43.921Z,97367.30
2019-01-17T21:46:15.401Z,97364.89
2019-01-17T21:48:46.852Z,97369.17
2019-01-17T21:51:18.234Z,97360.98
2019-01-17T21:53:49.744Z,97355.89
2019-01-17T21:56:21.107Z,97358.06
2019-01-17T21:58:55.975Z,97361.38
2019-01-17T22:01:25.579Z,97357.63
2019-01-17T22:03:57.052Z,97349.39
2019-01-17T22:06:28.040Z,97350.47
2019-01-17T22:09:16.144Z,97351.63
2019-01-17T22:11:48.301Z,97347.55
2019-01-17T22:14:19.890Z,97348.83
2019-01-17T22:16:51.645Z,97347.36
2019-01-17T22:19:24.157Z,97343.56
2019-01-17T22:21:56.417Z,97339.01
2019-01-17T22:24:29.875Z,97339.41
2019-01-17T22:27:01.500Z,97335.13
2019-01-17T22:29:34.169Z,97337.36
2019-01-17T22:32:05.553Z,97336.80
2019-01-17T22:34:42.073Z,97337.17
2019-01-17T22:37:26.734Z,97339.04
2019-01-17T22:40:42.287Z,97336.61
2019-01-17T22:43:14.812Z,97331.97
2019-01-17T22:45:46.297Z,97329.45
2019-01-17T22:48:17.802Z,97331.72
2019-01-17T22:50:49.290Z,97333.80
2019-01-17T22:53:22.063Z,97333.69
2019-01-17T22:55:53.995Z,97333.24
2019-01-17T22:58:25.670Z,97329.13
2019-01-17T23:01:20.403Z,97336.01
2019-01-17T23:03:54.062Z,97336.09
2019-01-17T23:06:25.607Z,97330.89
2019-01-17T23:08:56.956Z,97328.02
2019-01-17T23:11:29.583Z,97324.50
2019-01-17T23:14:01.297Z,97324.30
2019-01-17T23:16:32.764Z,97325.13
2019-01-17T23:19:04.288Z,97307.66
2019-01-17T23:21:35.536Z,97315.97
2019-01-17T23:24:07.000Z,97311.22
2019-01-17T23:26:38.450Z,97314.22
2019-01-17T23:29:15.807Z,97307.57
2019-01-17T23:31:42.880Z,97314.09
2019-01-17T23:34:14.179Z,97313.13
2019-01-17T23:36:48.824Z,97311.66
2019-01-17T23:39:18.751Z,97315.61
2019-01-17T23:41:50.195Z,97313.58
2019-01-17T23:44:21.631Z,97310.41
2019-01-17T23:46:53.171Z,97307.83
2019-01-17T23:49:24.624Z,97302.63
2019-01-17T23:51:56.060Z,97306.70
2019-01-17T23:54:27.430Z,97300.95
2019-01-17T23:56:58.843Z,97292.84
2019-01-17T23:59:30.452Z,97301.27
